Tiempo atmosférico en la estación meteorológica de Barx, València/Valencia (340 m.)



Fecha
DESCASC
Temp. máxima en grados centígrados (hora)
DESCASC
Temp. mínima en grados centígrados (hora)
DESCASC
Temp. media en grados centígrados
DESCASC
Racha de viento máxima en m/sg (hora)
DESCASC
Velocidad máxima media en intervalos de 10 minutos(hora)
DESCASC
Precipitaciones diarias en mm
DESCASC
Precipitaciones de 00:00 a 06:00 en mm
DESCASC
Precipitaciones de 06:00 a 12:00 en mm
DESCASC
Precipitaciones de 12:00 a 18:00 en mm
DESCASC
Precipitaciones de 18:00 a 24:00 en mm
DESCASC
31-03-2020 11.1 (17:40) 5.5 (07:50) 8.3 7.78 (02:00) 3.89 (02:30) 8.8 5.2 3.6 0 0
29-03-2020 22 (16:40) 5.1 (00:00) 13.5 7.78 (15:40) 3.89 (22:10) 0 0 0 0 0
28-03-2020 14.5 (14:30) 3.4 (00:00) 9 5.83 (15:00) 2.78 (10:00) 0.2 0 0.2 0 0
27-03-2020 8.3 (13:40) 5.6 (00:00) 7 8.61 (00:10) 5 (00:20) 8.4 0.4 4.4 3.6 0
26-03-2020 14.4 (14:50) 5.1 (00:00) 9.7 10.28 (14:40) 5.83 (13:50) 0 0 0 0 0
25-03-2020 9.7 (00:00) 6.5 (00:00) 8.1 9.72 (02:20) 3.61 (02:20) 20 2 14.6 3.4 0
24-03-2020 12.3 (00:00) 9.5 (00:00) 10.9 12.22 (06:10) 5.28 (18:00) 44.4 9.2 31.4 3.8 0
23-03-2020 16.4 (13:10) 9.1 (00:00) 12.8 11.11 (18:50) 4.44 (18:50) 6 0 0.4 4.4 1.2
22-03-2020 10.9 (12:00) 8.4 (04:30) 9.6 5 (15:00) 2.22 (12:50) 63.4 6.6 0 19.4 37.4
21-03-2020 11.1 (00:00) 8.5 (00:00) 9.8 5.83 (21:50) 2.5 (21:40) 17.6 0 2.4 4.2 11
20-03-2020 14 (12:10) 10.9 (00:00) 12.4 7.5 (15:00) 3.61 (20:00) 0 0 0 0 0
19-03-2020 12.9 (13:20) 10.5 (00:00) 11.7 5.83 (08:50) 2.5 (08:40) 0.2 0 0 0.2 0
18-03-2020 12.5 (13:50) 10.8 (00:00) 11.7 10 (06:00) 5 (10:30) 0 0 0 0 0
17-03-2020 12.5 (16:30) 7.2 (00:00) 9.8 11.11 (19:20) 6.11 (19:00) 20.6 9.4 2 8.8 0.4
16-03-2020 13.9 (11:10) 6.6 (00:00) 10.2 10.83 (11:30) 4.44 (11:30) 5.4 0 0.8 3.2 1.4
15-03-2020 18.9 (12:30) 10.2 (00:00) 14.5 9.17 (13:40) 5.28 (13:50) 0 0 0 0 0
14-03-2020 19.7 (15:40) 8 (00:00) 13.9 8.89 (17:00) 5 (17:20) 0 0 0 0 0
13-03-2020 15.6 (12:30) 8.1 (03:40) 11.9 5 (14:00) 2.78 (16:00) 0 0 0 0 0
12-03-2020 23.2 (16:10) 8.6 (00:00) 15.9 4.17 (14:00) 2.78 (13:50) 0 0 0 0 0
11-03-2020 26.8 (14:50) 11.9 (00:00) 19.3 8.06 (16:50) 4.44 (16:50) 0 0 0 0 0
10-03-2020 23.3 (15:50) 6.2 (00:00) 14.7 5.28 (11:20) 2.78 (11:10) 0 0 0 0 0
09-03-2020 20.3 (15:10) 9.7 (00:00) 15 8.89 (14:50) 3.89 (15:00) 0 0 0 0 0
08-03-2020 23.2 (16:00) 7.2 (00:00) 15.2 7.5 (18:00) 3.89 (15:30) 0 0 0 0 0
07-03-2020 18.3 (16:20) 6.5 (00:00) 12.4 13.61 (03:10) 6.39 (03:10) 0 0 0 0 0
06-03-2020 16.3 (14:10) 9.5 (00:00) 12.9 15 (14:30) 7.78 (01:50) 0 0 0 0 0
05-03-2020 21.9 (13:50) 12.4 (00:00) 17.1 15.83 (15:10) 8.33 (15:00) 0 0 0 0 0
04-03-2020 21.2 (15:40) 14 (07:40) 17.6 11.11 (15:50) 5.56 (13:50) 0 0 0 0 0
03-03-2020 19.1 (16:20) 8.8 (00:00) 14 16.94 (15:40) 7.5 (16:30) 0 0 0 0 0
02-03-2020 19.4 (10:50) 10 (00:00) 14.7 23.06 (11:20) 10 (14:20) 0 0 0 0 0

Gráficas

Temp. máximas Temp. mínimas Temp. medias Precipitaciones Rachas de viento máximas Velocidades máximas media en intervalos de 10 minutos

Datos horarios

Fecha y hora oficial Temperatura (ºC) Velocidad del viento (km/h) Dirección del viento Racha (km/h) Dirección de racha Precipitación (mm) Presión (hPa) Tendencia (hPa) Humedad (%)
2020-03-31 23:00:00 10.1 7 Noroeste 14 Noroeste 0 -- -- 100
2020-03-31 22:00:00 10 4 Norte 12 Nordeste 0 -- -- 100
2020-03-31 21:00:00 10 6 Norte 17 Nordeste 0 -- -- 100
2020-03-31 20:00:00 10.3 9 Nordeste 18 Nordeste 0 -- -- 98
2020-03-31 19:00:00 10.8 5 Norte 17 Norte 0 -- -- 99
2020-03-31 18:00:00 11 6 Norte 12 Norte 0 -- -- 98
2020-03-31 17:00:00 10.6 2 Noroeste 6 Nordeste 0 -- -- 100
2020-03-31 16:00:00 9.8 0 Calma 10 Noroeste 0 -- -- 100
2020-03-31 15:00:00 9.3 5 Noroeste 14 Oeste 0 -- -- 98
2020-03-31 14:00:00 8.5 5 Noroeste 14 Noroeste 0 -- -- 97
2020-03-31 13:00:00 7.5 7 Noroeste 14 Noroeste 0 -- -- 100
2020-03-31 12:00:00 6.8 5 Noroeste 17 Noroeste 0 -- -- 100
2020-03-31 11:00:00 6.7 3 Norte 11 Noroeste 0.6 -- -- 100
2020-03-31 10:00:00 6.2 5 Norte 19 Oeste 1.2 -- -- 100
2020-03-31 09:00:00 6.3 4 Oeste 9 Noroeste 1.4 -- -- 100
2020-03-31 08:00:00 5.5 0 Calma 13 Oeste 0.2 -- -- 100
2020-03-31 07:00:00 5.9 4 Norte 14 Oeste 0.2 -- -- 100
2020-03-31 06:00:00 6.1 2 Norte 10 Norte 0.2 -- -- 100
2020-03-31 05:00:00 6.1 8 Nordeste 17 Norte 0.4 -- -- 100
2020-03-31 04:00:00 6.6 7 Norte 19 Noroeste 0.2 -- -- 100
2020-03-31 03:00:00 6.5 10 Norte 24 Norte 0.8 -- -- 100
2020-03-31 02:00:00 6.8 9 Norte 28 Norte 1.6 -- -- 100
2020-03-31 01:00:00 6.8 12 Norte 22 Nordeste 2 -- -- 100
2020-03-31 00:00:00 6.8 9 Norte 24 Norte 1.6 -- -- 100
2020-03-30 23:00:00 6.9 8 Norte 24 Noroeste 1 -- -- 99
2020-03-30 22:00:00 7 11 Norte 23 Nordeste 0.4 -- -- 97
2020-03-30 21:00:00 7.8 4 Sur 13 Este 0.2 -- -- 88
2020-03-30 20:00:00 8.2 6 Sudeste 24 Sudeste 0 -- -- 81
2020-03-30 19:00:00 8.5 4 Nordeste 18 Sudeste 0 -- -- 82
2020-03-30 18:00:00 9.5 8 Sudeste 21 Sudeste 0 -- -- 76
2020-03-30 17:00:00 9.8 11 Este 28 Este 0 -- -- 74
2020-03-30 16:00:00 11.6 8 Este 22 Sudeste 0 -- -- 70
2020-03-30 15:00:00 12 6 Sudeste 17 Este 0 -- -- 75
2020-03-30 14:00:00 10.4 9 Este 27 Este 0.2 -- -- 85
2020-03-30 13:00:00 10.6 5 Sudeste 25 Sudeste 0 -- -- 87
2020-03-30 12:00:00 10.9 9 Este 21 Sudeste 0 -- -- 84
2020-03-30 11:00:00 11.7 3 Este 19 Sur 0 -- -- 82
2020-03-30 10:00:00 11.6 9 Sur 26 Sudeste 0 -- -- 82
2020-03-30 09:00:00 10.9 8 Sur 19 Sur 0 -- -- 85
2020-03-30 08:00:00 10.1 3 Sur 16 Sur 0 -- -- 80
2020-03-30 07:00:00 10.8 11 Sur 19 Sudeste 0 -- -- 74
2020-03-30 06:00:00 9.5 2 Este 9 Sudeste 0 -- -- 81
2020-03-30 05:00:00 11.3 0 Calma 18 Este 0 -- -- 76
2020-03-30 04:00:00 12 4 Este 13 Este 0 -- -- 70
2020-03-30 03:00:00 -- -- -- -- -- 0 -- -- --
2020-03-30 02:00:00 13.6 0 Calma 23 Oeste 0 -- -- 64
2020-03-30 01:00:00 14.6 11 Sudoeste 23 Sudoeste 0 -- -- 61
2020-03-30 00:00:00 14.7 9 Sudoeste 22 Sudoeste 0 -- -- 60
2020-03-29 23:00:00 14.7 11 Sudoeste 25 Sudoeste 0 -- -- 61
2020-03-29 22:00:00 15.4 11 Sudoeste 24 Oeste 0 -- -- 59
2020-03-29 21:00:00 16.5 11 Sudoeste 22 Sudoeste 0 -- -- 53
2020-03-29 20:00:00 18.9 6 Sudoeste 20 Sudoeste 0 -- -- 45
2020-03-29 19:00:00 21.5 7 Oeste 18 Oeste 0 -- -- 39
2020-03-29 18:00:00 21.2 9 Oeste 21 Sur 0 -- -- 41
2020-03-29 17:00:00 20.5 5 Noroeste 23 Oeste 0 -- -- 45
2020-03-29 16:00:00 21.9 8 Sudoeste 28 Norte 0 -- -- 38
2020-03-29 15:00:00 20.7 8 Noroeste 25 Sudoeste 0 -- -- 44
2020-03-29 14:00:00 19.4 7 Noroeste 22 Noroeste 0 -- -- 45
2020-03-29 13:00:00 17.7 5 Noroeste 20 Noroeste 0 -- -- 48
2020-03-29 12:00:00 15.6 5 Noroeste 19 Norte 0 -- -- 57
2020-03-29 11:00:00 13.7 5 Noroeste 12 Oeste 0 -- -- 60
2020-03-29 10:00:00 11.5 4 Noroeste 10 Oeste 0 -- -- 70
2020-03-29 09:00:00 7.8 3 Este 10 Sudeste 0 -- -- 82
2020-03-29 08:00:00 6.2 4 Sur 13 Sur 0 -- -- 88
2020-03-29 07:00:00 5.1 3 Sur 6 Sur 0 -- -- 93
2020-03-29 06:00:00 5.6 3 Sur 8 Sudeste 0 -- -- 91
2020-03-29 05:00:00 6.2 3 Sur 8 Sur 0 -- -- 87
2020-03-29 03:00:00 5.8 3 Sur 6 Sur 0 -- -- 91
2020-03-29 01:00:00 5.9 4 Sudeste 9 Sur 0 -- -- 90
2020-03-29 00:00:00 6.4 5 Sur 8 Sur 0 -- -- 87
2020-03-28 23:00:00 6.8 4 Sur 8 Sur 0 -- -- 85
2020-03-28 22:00:00 6.7 4 Sur 8 Sur 0 -- -- 87
2020-03-28 21:00:00 7.6 3 Sur 7 Sur 0 -- -- 87
2020-03-28 20:00:00 9.2 2 Sudeste 4 Sudeste 0 -- -- 80
2020-03-28 19:00:00 12.5 3 Oeste 13 Nordeste 0 -- -- 69
2020-03-28 18:00:00 13.1 0 Calma 10 Nordeste 0 -- -- 57
2020-03-28 17:00:00 13.1 5 Norte 19 Nordeste 0 -- -- 56
2020-03-28 16:00:00 14.1 5 Norte 19 Nordeste 0 -- -- 53
2020-03-28 15:00:00 13.6 10 Nordeste 21 Nordeste 0 -- -- 58
2020-03-28 14:00:00 14 6 Este 19 Nordeste 0 -- -- 57
2020-03-28 13:00:00 12.9 4 Nordeste 15 Norte 0 -- -- 58
2020-03-28 12:00:00 12.3 3 Noroeste 15 Oeste 0 -- -- 65
2020-03-28 11:00:00 12 6 Oeste 15 Noroeste 0 -- -- 80
2020-03-28 10:00:00 9.7 10 Oeste 14 Oeste 0 -- -- 87
2020-03-28 09:00:00 6.7 2 Norte 9 Norte 0.2 -- -- 100
2020-03-28 08:00:00 3.5 0 Calma 4 Oeste 0 -- -- 100
2020-03-28 07:00:00 3.7 0 Calma 4 Nordeste 0 -- -- 100
2020-03-28 06:00:00 3.4 0 Calma 5 Sur 0 -- -- 100
2020-03-28 05:00:00 3.5 0 Calma 5 Sudeste 0 -- -- 100
2020-03-28 04:00:00 3.9 2 Sudeste 4 Sudeste 0 -- -- 100
2020-03-28 03:00:00 4.7 0 Calma 3 Oeste 0 -- -- 99
2020-03-28 02:00:00 6.1 0 Calma 3 Sudoeste 0 -- -- 100
2020-03-28 01:00:00 6.3 0 Calma 5 Sudeste 0 -- -- 100
2020-03-28 00:00:00 5.9 2 Sur 4 Sur 0 -- -- 100
2020-03-27 23:00:00 6 0 Calma 2 Sur 0 -- -- 100
2020-03-27 22:00:00 6.2 0 Calma 4 Oeste 0 -- -- 99
2020-03-27 21:00:00 7 0 Calma 2 Norte 0 -- -- 100
2020-03-27 20:00:00 7.5 0 Calma 5 Norte 0 -- -- 99
2020-03-27 19:00:00 7.7 0 Calma 4 Norte 0 -- -- 98
2020-03-27 18:00:00 7.7 4 Norte 6 Norte 0.2 -- -- 98
2020-03-27 17:00:00 7.9 4 Nordeste 12 Sur 1 -- -- 97
2020-03-27 16:00:00 8.1 0 Calma 10 Nordeste 0.4 -- -- 97
2020-03-27 15:00:00 7.8 4 Nordeste 14 Norte 0.8 -- -- 100
2020-03-27 14:00:00 7.9 5 Nordeste 10 Norte 0.4 -- -- 99
2020-03-27 13:00:00 7.7 2 Noroeste 9 Nordeste 0.8 -- -- 100
2020-03-27 12:00:00 7 4 Nordeste 14 Nordeste 0.2 -- -- 100
2020-03-27 11:00:00 7.2 2 Norte 7 Noroeste 3 -- -- 99
2020-03-27 10:00:00 6.5 3 Noroeste 7 Noroeste 0.2 -- -- 99
2020-03-27 09:00:00 6.4 0 Calma 9 Nordeste 0 -- -- 99
2020-03-27 08:00:00 6 0 Calma 2 Norte 0.4 -- -- 97
2020-03-27 07:00:00 5.6 0 Calma 8 Oeste 0.6 -- -- 97
2020-03-27 06:00:00 5.8 3 Oeste 11 Oeste 0.2 -- -- 95
2020-03-27 05:00:00 6.2 5 Norte 11 Norte 0 -- -- 95
2020-03-27 04:00:00 6.5 3 Norte 16 Norte 0.2 -- -- 94
2020-03-27 03:00:00 7.1 2 Noroeste 17 Norte 0 -- -- 91
2020-03-27 02:00:00 7.3 12 Norte 23 Norte 0 -- -- 88
2020-03-27 01:00:00 7.4 5 Norte 31 Norte 0 -- -- 86
2020-03-27 00:00:00 7.8 16 Norte 28 Norte 0 -- -- 90
2020-03-26 23:00:00 7.7 6 Norte 20 Norte 0 -- -- 85
2020-03-26 22:00:00 8.2 3 Noroeste 17 Nordeste 0 -- -- 88
2020-03-26 21:00:00 8.6 4 Sudoeste 13 Nordeste 0 -- -- 81
2020-03-26 20:00:00 8.3 2 Noroeste 11 Sudeste 0 -- -- 81
2020-03-26 19:00:00 9.5 3 Nordeste 12 Sur 0 -- -- 66
2020-03-26 18:00:00 10.1 2 Sur 22 Nordeste 0 -- -- 69
2020-03-26 17:00:00 10.4 17 Norte 36 Norte 0 -- -- 69
2020-03-26 16:00:00 12.3 9 Sudeste 24 Nordeste 0 -- -- 52
2020-03-26 15:00:00 14 16 Nordeste 37 Nordeste 0 -- -- 50
2020-03-26 14:00:00 13.2 20 Norte 37 Nordeste 0 -- -- 45
2020-03-26 13:00:00 12.3 14 Norte 26 Norte 0 -- -- 55
2020-03-26 12:00:00 12.1 7 Norte 24 Noroeste 0 -- -- 64
2020-03-26 11:00:00 10.7 6 Norte 16 Oeste 0 -- -- 74
2020-03-26 10:00:00 9.3 6 Noroeste 17 Noroeste 0 -- -- 90
2020-03-26 09:00:00 8.3 8 Noroeste 18 Noroeste 0 -- -- 90
2020-03-26 08:00:00 7 0 Calma 6 Nordeste 0 -- -- 98
2020-03-26 07:00:00 5.9 2 Sudeste 6 Sur 0 -- -- 97
2020-03-26 06:00:00 6.6 4 Sur 8 Oeste 0 -- -- 96
2020-03-26 05:00:00 7 3 Sur 13 Sudoeste 0 -- -- 96
2020-03-26 04:00:00 7.4 2 Norte 6 Norte 0 -- -- 94
2020-03-26 03:00:00 7.1 3 Norte 9 Este 0 -- -- 96
2020-03-26 02:00:00 6.4 0 Calma 8 Sudoeste 0 -- -- 99
2020-03-26 01:00:00 5.6 2 Sur 10 Sur 0 -- -- 98
2020-03-26 00:00:00 6.5 3 Sur 7 Sudoeste 0 -- -- 98
2020-03-25 23:00:00 7 0 Calma 5 Noroeste 0 -- -- 98
2020-03-25 22:00:00 6.9 4 Sur 9 Sudoeste 0 -- -- 98
2020-03-25 21:00:00 6.9 0 Calma 5 Sudoeste 0 -- -- 98
2020-03-25 20:00:00 7.3 0 Calma 3 Norte 0 -- -- 97
2020-03-25 19:00:00 7.6 0 Calma 5 Sur 0 -- -- 94
2020-03-25 18:00:00 7.9 2 Sudoeste 8 Norte 0 -- -- 94
2020-03-25 17:00:00 7.7 2 Sudoeste 5 Noroeste 0 -- -- 92
2020-03-25 16:00:00 7.4 3 Norte 10 Nordeste 0 -- -- 95
2020-03-25 15:00:00 7.7 4 Norte 11 Norte 0.2 -- -- 97
2020-03-25 14:00:00 7.4 3 Oeste 5 Sudoeste 2.2 -- -- 98
2020-03-25 13:00:00 7.6 2 Norte 8 Nordeste 1 -- -- 98
2020-03-25 12:00:00 7.6 4 Nordeste 9 Nordeste 2 -- -- 100
2020-03-25 11:00:00 7.5 4 Oeste 6 Oeste 2.2 -- -- 99
2020-03-25 10:00:00 7.1 0 Calma 8 Oeste 2.6 -- -- 98
2020-03-25 09:00:00 7.1 2 Oeste 7 Oeste 2 -- -- 99
2020-03-25 08:00:00 7 4 Norte 10 Oeste 5 -- -- 100
2020-03-25 07:00:00 7.2 4 Oeste 13 Noroeste 0.8 -- -- 100
2020-03-25 06:00:00 7.3 5 Noroeste 10 Oeste 0 -- -- 100
2020-03-25 05:00:00 7.5 2 Norte 12 Noroeste 0.6 -- -- 98
2020-03-25 04:00:00 7.7 2 Norte 8 Norte 0 -- -- 95
2020-03-25 03:00:00 7.9 5 Norte 35 Norte 0.8 -- -- 97
2020-03-25 02:00:00 8.8 7 Norte 22 Noroeste 0.6 -- -- 92
2020-03-25 01:00:00 9.6 6 Sur 22 Sudeste 0 -- -- 84
2020-03-25 00:00:00 9.7 9 Sudeste 28 Sudeste 0 -- -- 82
2020-03-24 23:00:00 9.5 6 Sudoeste 24 Sudeste 0 -- -- 82
2020-03-24 22:00:00 9.7 5 Oeste 23 Norte 0 -- -- 85
2020-03-24 21:00:00 9.9 9 Noroeste 22 Noroeste 0 -- -- 85
2020-03-24 20:00:00 9.9 8 Noroeste 34 Norte 0 -- -- 87
2020-03-24 19:00:00 10.2 13 Norte 37 Norte 0 -- -- 89
2020-03-24 18:00:00 10.1 19 Norte 42 Norte 0.2 -- -- 92
2020-03-24 17:00:00 10 12 Norte 41 Nordeste 0.4 -- -- 93
2020-03-24 16:00:00 10.2 10 Noroeste 33 Noroeste 0 -- -- 94
2020-03-24 15:00:00 10.3 11 Sudeste 30 Sudeste 0 -- -- 95
2020-03-24 14:00:00 10.4 11 Sur 37 Sudeste 0.6 -- -- 97
2020-03-24 13:00:00 10.5 9 Sudeste 33 Sudeste 2.6 -- -- 98
2020-03-24 12:00:00 10.8 12 Sudeste 39 Sur 6.4 -- -- 98
2020-03-24 11:00:00 11 13 Sudeste 43 Sur 3.8 -- -- 100
2020-03-24 10:00:00 11 12 Sudeste 34 Sudeste 2 -- -- 100
2020-03-24 09:00:00 11.2 12 Sur 42 Sudeste 0 -- -- 100
2020-03-24 08:00:00 11.2 13 Sudeste 43 Sur 15.4 -- -- 100
2020-03-24 07:00:00 11.4 10 Sudeste 44 Sudeste 3.8 -- -- 99
2020-03-24 06:00:00 11.6 11 Este 37 Nordeste 0 -- -- 98
2020-03-24 05:00:00 11.7 15 Sudeste 36 Sudeste 9.2 -- -- 100
2020-03-24 04:00:00 11.9 10 Este 34 Sur 0 -- -- 97
2020-03-24 03:00:00 11.9 10 Sudeste 34 Este 0 -- -- 96
2020-03-24 02:00:00 12 15 Sudeste 36 Sudeste 0 -- -- 95
2020-03-24 01:00:00 12.2 9 Este 37 Este 0 -- -- 97
2020-03-24 00:00:00 12.3 11 Este 36 Sudeste 0 -- -- 96
2020-03-23 23:00:00 12.2 12 Sudeste 35 Sudeste 0 -- -- 98
2020-03-23 22:00:00 12.1 9 Sudeste 40 Sudeste 0 -- -- 98
2020-03-23 21:00:00 12.1 13 Sudeste 36 Sudeste 0 -- -- 99
2020-03-23 20:00:00 12 15 Sudeste 39 Este 0 -- -- 100
2020-03-23 19:00:00 12.2 10 Sudeste 40 Sudeste 1.2 -- -- 99
2020-03-23 18:00:00 12.4 8 Sudeste 35 Nordeste 0.2 -- -- 96
2020-03-23 17:00:00 12.5 9 Este 29 Sudeste 0 -- -- 95
2020-03-23 16:00:00 12.6 10 Sur 24 Sudeste 0.2 -- -- 94
2020-03-23 15:00:00 12.6 4 Sudoeste 13 Sur 2.6 -- -- 94
2020-03-23 14:00:00 12.9 5 Sudeste 25 Sur 1.4 -- -- 89
2020-03-23 13:00:00 15.8 11 Sur 21 Sur 0 -- -- 84
2020-03-23 12:00:00 14.5 8 Sur 27 Sur 0.4 -- -- 91
2020-03-23 11:00:00 12.3 0 Calma 16 Sur 0 -- -- 98
2020-03-23 10:00:00 11.7 3 Noroeste 6 Nordeste 0 -- -- 98
2020-03-23 09:00:00 10.2 0 Calma 4 Nordeste 0 -- -- 100
2020-03-23 08:00:00 9.3 0 Calma 5 Sudoeste 0 -- -- 100
2020-03-23 07:00:00 9.3 0 Calma 12 Sudoeste 0 -- -- 99
2020-03-23 06:00:00 10.2 5 Sudeste 24 Sudeste 0 -- -- 93
2020-03-23 05:00:00 9.8 2 Norte 14 Sur 0 -- -- 100
2020-03-23 04:00:00 9.2 0 Calma 3 Sur 0 -- -- 100
2020-03-23 03:00:00 9.7 2 Sudeste 6 Sudeste 0 -- -- 100
2020-03-23 02:00:00 10.2 2 Este 14 Este 0 -- -- 98
2020-03-23 01:00:00 10.4 3 Este 16 Sudeste 0 -- -- 99
2020-03-23 00:00:00 10.2 0 Calma 7 Este 0 -- -- 100
2020-03-22 23:00:00 10.4 2 Norte 6 Sudoeste 1.6 -- -- 100
2020-03-22 22:00:00 10.5 5 Nordeste 11 Sudeste 30 -- -- 100
2020-03-22 21:00:00 10.6 3 Nordeste 9 Nordeste 2.6 -- -- 100
2020-03-22 20:00:00 10.5 2 Sudeste 10 Nordeste 2.2 -- -- 100
2020-03-22 19:00:00 10.5 3 Nordeste 12 Nordeste 1 -- -- 100
2020-03-22 18:00:00 10.5 6 Nordeste 12 Nordeste 4.2 -- -- 100
2020-03-22 17:00:00 10.9 5 Nordeste 10 Norte 7.6 -- -- 99
2020-03-22 16:00:00 10.8 4 Nordeste 13 Norte 5.2 -- -- 99
2020-03-22 15:00:00 10.8 6 Norte 18 Nordeste 2.2 -- -- 100
2020-03-22 14:00:00 10.5 5 Nordeste 16 Nordeste 0.2 -- -- 98
2020-03-22 13:00:00 10.6 8 Norte 18 Norte 0 -- -- 96
2020-03-22 12:00:00 10.9 7 Nordeste 12 Nordeste 0 -- -- 96
2020-03-22 11:00:00 10.2 2 Norte 6 Nordeste 0 -- -- 100
2020-03-22 10:00:00 9.3 0 Calma 6 Noroeste 0 -- -- 100
2020-03-22 09:00:00 9.3 3 Noroeste 9 Nordeste 0 -- -- 100
2020-03-22 08:00:00 8.9 0 Calma 2 Norte 0 -- -- 100
2020-03-22 07:00:00 8.7 0 Calma 6 Nordeste 0 -- -- 100
2020-03-22 06:00:00 8.5 4 Nordeste 8 Nordeste 0 -- -- 100
2020-03-22 05:00:00 8.5 2 Sudoeste 13 Oeste 0 -- -- 100
2020-03-22 04:00:00 8.6 0 Calma 12 Nordeste 3.6 -- -- 100
2020-03-22 03:00:00 8.6 0 Calma 4 Noroeste 2.8 -- -- 100
2020-03-22 02:00:00 8.5 0 Calma 8 Noroeste 0.2 -- -- 100
2020-03-22 01:00:00 8.6 0 Calma 5 Noroeste 0 -- -- 99
2020-03-22 00:00:00 8.5 0 Calma 6 Este 0.6 -- -- 99
2020-03-21 23:00:00 8.5 0 Calma 17 Oeste 3.2 -- -- 99
2020-03-21 22:00:00 9.1 4 Oeste 21 Oeste 6.6 -- -- 98
2020-03-21 21:00:00 10.7 3 Oeste 8 Nordeste 0.6 -- -- 100
2020-03-21 20:00:00 10.8 4 Nordeste 6 Norte 0 -- -- 100
2020-03-21 19:00:00 10.8 2 Nordeste 9 Nordeste 0 -- -- 100
2020-03-21 18:00:00 10.8 3 Norte 9 Nordeste 0 -- -- 98
2020-03-21 17:00:00 10.8 5 Norte 10 Norte 0 -- -- 99
2020-03-21 16:00:00 10.4 3 Norte 13 Nordeste 0.4 -- -- 100
2020-03-21 15:00:00 10.1 6 Norte 13 Norte 0.6 -- -- 100
2020-03-21 14:00:00 10.3 5 Norte 14 Nordeste 1.4 -- -- 100
2020-03-21 13:00:00 10.1 5 Norte 11 Norte 1.8 -- -- 100
2020-03-21 12:00:00 10.2 3 Noroeste 11 Norte 0.8 -- -- 100
2020-03-21 11:00:00 10.1 2 Noroeste 5 Norte 1 -- -- 100
2020-03-21 10:00:00 10 3 Norte 5 Norte 0.2 -- -- 100
2020-03-21 09:00:00 9.9 3 Noroeste 5 Norte 0 -- -- 100
2020-03-21 08:00:00 9.8 2 Nordeste 8 Norte 0.2 -- -- 100
2020-03-21 07:00:00 10 5 Nordeste 13 Nordeste 0.2 -- -- 100
2020-03-21 06:00:00 10.5 3 Nordeste 10 Nordeste 0 -- -- 96
2020-03-21 05:00:00 10.5 5 Nordeste 14 Norte 0 -- -- 96
2020-03-21 04:00:00 10.6 6 Norte 17 Norte 0 -- -- 97
2020-03-21 03:00:00 10.7 7 Nordeste 14 Nordeste 0 -- -- 96
2020-03-21 02:00:00 10.8 3 Norte 11 Norte 0 -- -- 96
2020-03-21 01:00:00 11 4 Norte 18 Nordeste 0 -- -- 96
2020-03-21 00:00:00 11.1 5 Norte 14 Norte 0 -- -- 95
2020-03-20 23:00:00 11.3 5 Norte 19 Sudeste 0 -- -- 92
2020-03-20 22:00:00 11.4 4 Norte 17 Sur 0 -- -- 91
2020-03-20 21:00:00 11.3 8 Norte 21 Nordeste 0 -- -- 94
2020-03-20 20:00:00 11.2 13 Norte 23 Norte 0 -- -- 95
2020-03-20 19:00:00 11.3 6 Noroeste 22 Norte 0 -- -- 94
2020-03-20 18:00:00 11.4 10 Norte 21 Nordeste 0 -- -- 93
2020-03-20 17:00:00 12.4 10 Norte 19 Nordeste 0 -- -- 86
2020-03-20 16:00:00 12.6 9 Nordeste 21 Nordeste 0 -- -- 80
2020-03-20 15:00:00 13.1 10 Nordeste 27 Nordeste 0 -- -- 80
2020-03-20 14:00:00 12.3 4 Nordeste 17 Norte 0 -- -- 85
2020-03-20 13:00:00 13.8 5 Sur 18 Nordeste 0 -- -- 77
2020-03-20 12:00:00 13.1 5 Sur 13 Sur 0 -- -- 81
2020-03-20 11:00:00 11.9 5 Este 15 Este 0 -- -- 86
2020-03-20 10:00:00 11.4 3 Noroeste 15 Sur 0 -- -- 93
2020-03-20 09:00:00 11.1 8 Este 18 Sur 0 -- -- 93
2020-03-20 08:00:00 10.9 7 Norte 15 Nordeste 0 -- -- 94
2020-03-20 07:00:00 10.9 5 Oeste 17 Nordeste 0 -- -- 94
2020-03-20 06:00:00 11 4 Nordeste 14 Nordeste 0 -- -- 92
2020-03-20 05:00:00 11 3 Nordeste 12 Este 0 -- -- 93
2020-03-20 04:00:00 11 4 Norte 10 Norte 0 -- -- 95
2020-03-20 03:00:00 11.2 2 Sudeste 15 Sudeste 0 -- -- 91
2020-03-20 02:00:00 11.4 5 Este 14 Nordeste 0 -- -- 91
2020-03-20 01:00:00 11.5 5 Este 25 Este 0 -- -- 91
2020-03-20 00:00:00 11.5 4 Sudeste 12 Este 0 -- -- 90
2020-03-19 23:00:00 11.4 4 Nordeste 11 Nordeste 0 -- -- 92
2020-03-19 22:00:00 11.3 3 Nordeste 10 Sudeste 0 -- -- 93
2020-03-19 21:00:00 11.2 2 Nordeste 13 Norte 0 -- -- 93
2020-03-19 20:00:00 11.5 3 Nordeste 13 Nordeste 0 -- -- 95
2020-03-19 19:00:00 11.9 4 Nordeste 15 Nordeste 0 -- -- 91
2020-03-19 18:00:00 12.6 3 Este 14 Sur 0 -- -- 87
2020-03-19 17:00:00 12.6 3 Nordeste 13 Nordeste 0 -- -- 86
2020-03-19 16:00:00 12.3 4 Este 15 Este 0 -- -- 89
2020-03-19 15:00:00 11.9 3 Este 8 Este 0.2 -- -- 92
2020-03-19 14:00:00 12.1 4 Nordeste 18 Nordeste 0 -- -- 91
2020-03-19 13:00:00 12.4 4 Norte 13 Oeste 0 -- -- 92
2020-03-19 12:00:00 12.3 4 Sur 14 Nordeste 0 -- -- 89
2020-03-19 11:00:00 11.9 4 Norte 17 Norte 0 -- -- 95
2020-03-19 10:00:00 11.2 4 Norte 14 Norte 0 -- -- 99
2020-03-19 09:00:00 11 5 Noroeste 21 Norte 0 -- -- 99
2020-03-19 08:00:00 10.8 6 Norte 15 Norte 0 -- -- 100
2020-03-19 07:00:00 10.8 5 Norte 10 Este 0 -- -- 99
2020-03-19 06:00:00 10.7 6 Norte 13 Norte 0 -- -- 100
2020-03-19 05:00:00 10.7 4 Norte 9 Noroeste 0 -- -- 99
2020-03-19 04:00:00 10.6 2 Noroeste 4 Noroeste 0 -- -- 99
2020-03-19 03:00:00 10.7 0 Calma 5 Nordeste 0 -- -- 99
2020-03-19 02:00:00 10.7 5 Nordeste 14 Nordeste 0 -- -- 98
2020-03-19 01:00:00 10.8 7 Norte 11 Norte 0 -- -- 99
2020-03-19 00:00:00 10.9 2 Norte 8 Norte 0 -- -- 99
2020-03-18 23:00:00 11 3 Norte 12 Norte 0 -- -- 98
2020-03-18 22:00:00 11 5 Norte 8 Norte 0 -- -- 98
2020-03-18 21:00:00 10.9 4 Noroeste 7 Norte 0 -- -- 98
2020-03-18 20:00:00 11.1 5 Norte 12 Norte 0 -- -- 97
2020-03-18 19:00:00 11.3 5 Norte 10 Nordeste 0 -- -- 96
2020-03-18 18:00:00 11.6 6 Norte 18 Norte 0 -- -- 92
2020-03-18 17:00:00 11.8 9 Norte 21 Nordeste 0 -- -- 90
2020-03-18 16:00:00 11.9 11 Norte 24 Norte 0 -- -- 88
2020-03-18 15:00:00 12 10 Norte 29 Norte 0 -- -- 87
2020-03-18 14:00:00 12.4 15 Norte 32 Norte 0 -- -- 85
2020-03-18 13:00:00 12.1 12 Norte 28 Norte 0 -- -- 92
2020-03-18 12:00:00 11.9 10 Norte 29 Norte 0 -- -- 94
2020-03-18 11:00:00 11.4 15 Norte 32 Norte 0 -- -- 97
2020-03-18 10:00:00 11.2 15 Norte 28 Nordeste 0 -- -- 97
2020-03-18 09:00:00 11.4 8 Noroeste 30 Norte 0 -- -- 97
2020-03-18 08:00:00 11.3 11 Norte 24 Norte 0 -- -- 99
2020-03-18 07:00:00 11.5 6 Sudoeste 20 Norte 0 -- -- 97
2020-03-18 06:00:00 11.7 8 Sur 36 Sudeste 0 -- -- 100
2020-03-18 05:00:00 11.7 7 Sur 22 Sudeste 0 -- -- 100
2020-03-18 04:00:00 11.7 5 Sudoeste 27 Sudeste 0 -- -- 100
2020-03-18 03:00:00 11.6 6 Sur 23 Norte 0 -- -- 100
2020-03-18 02:00:00 11.6 8 Sudeste 28 Este 0 -- -- 100
2020-03-18 01:00:00 11.6 9 Norte 28 Nordeste 0 -- -- 100
2020-03-18 00:00:00 11.6 7 Sudeste 22 Norte 0 -- -- 100
2020-03-17 23:00:00 11.9 9 Sudoeste 26 Norte 0 -- -- 100
2020-03-17 22:00:00 12 10 Noroeste 37 Norte 0 -- -- 100
2020-03-17 21:00:00 12 17 Norte 38 Norte 0.2 -- -- 100
2020-03-17 20:00:00 12.1 16 Norte 40 Nordeste 0 -- -- 100
2020-03-17 19:00:00 12.2 22 Norte 37 Norte 0.2 -- -- 100
2020-03-17 18:00:00 12.4 14 Norte 31 Nordeste 0.6 -- -- 100
2020-03-17 17:00:00 12.5 12 Norte 35 Nordeste 2.6 -- -- 100
2020-03-17 16:00:00 12.3 11 Norte 28 Nordeste 5 -- -- 100
2020-03-17 15:00:00 10.6 0 Calma 8 Noroeste 0.6 -- -- 100
2020-03-17 14:00:00 10.5 3 Noroeste 11 Oeste 0 -- -- 100
2020-03-17 13:00:00 10.1 3 Norte 10 Noroeste 0 -- -- 100
2020-03-17 12:00:00 10.3 4 Noroeste 10 Noroeste 0.4 -- -- 98
2020-03-17 11:00:00 10.3 5 Norte 9 Norte 1 -- -- 98
2020-03-17 10:00:00 9.8 4 Norte 7 Norte 0 -- -- 99
2020-03-17 09:00:00 8.7 2 Norte 10 Oeste 0.2 -- -- 100
2020-03-17 08:00:00 8.2 5 Noroeste 8 Noroeste 0 -- -- 100
2020-03-17 07:00:00 7.8 0 Calma 13 Oeste 0.4 -- -- 100
2020-03-17 06:00:00 7.8 0 Calma 6 Oeste 0.2 -- -- 100
2020-03-17 05:00:00 7.3 0 Calma 8 Noroeste 0.4 -- -- 99
2020-03-17 04:00:00 7.6 4 Norte 8 Noroeste 3.4 -- -- 100
2020-03-17 03:00:00 7.4 3 Noroeste 16 Noroeste 2.6 -- -- 98
2020-03-17 02:00:00 7.8 4 Oeste 7 Oeste 2.6 -- -- 98
2020-03-17 01:00:00 7.8 0 Calma 3 Noroeste 0.2 -- -- 98
2020-03-17 00:00:00 7.7 3 Noroeste 8 Oeste 0 -- -- 94
2020-03-16 23:00:00 7.4 0 Calma 6 Sudoeste 0.2 -- -- 97
2020-03-16 22:00:00 7.2 0 Calma 5 Este 0 -- -- 97
2020-03-16 21:00:00 6.7 0 Calma 8 Noroeste 0.4 -- -- 95
2020-03-16 20:00:00 6.7 3 Nordeste 6 Norte 0 -- -- 93
2020-03-16 19:00:00 6.9 2 Este 10 Este 0.8 -- -- 93
2020-03-16 18:00:00 6.9 4 Sudeste 9 Noroeste 0.6 -- -- 96
2020-03-16 17:00:00 6.7 5 Este 10 Noroeste 0.4 -- -- 97
2020-03-16 16:00:00 7.1 3 Norte 12 Norte 0 -- -- 94
2020-03-16 15:00:00 7.1 4 Noroeste 23 Noroeste 0.6 -- -- 97
2020-03-16 14:00:00 7.3 6 Noroeste 17 Noroeste 0.4 -- -- 95
2020-03-16 13:00:00 7.8 4 Norte 18 Noroeste 1.2 -- -- 94
2020-03-16 12:00:00 9.7 5 Noroeste 39 Oeste 0 -- -- 87
2020-03-16 11:00:00 13.7 0 Calma 17 Sur 0 -- -- 85
2020-03-16 10:00:00 13.7 10 Sur 23 Sur 0 -- -- 88
2020-03-16 09:00:00 12 10 Sur 22 Sudeste 0 -- -- 93
2020-03-16 08:00:00 11.5 11 Sudeste 19 Sudeste 0 -- -- 95
2020-03-16 07:00:00 11.5 8 Sur 18 Sur 0.8 -- -- 97
2020-03-16 06:00:00 11.9 6 Sur 12 Sur 0 -- -- 95
2020-03-16 05:00:00 11.8 2 Este 8 Nordeste 0 -- -- 96
2020-03-16 04:00:00 11.7 0 Calma 14 Noroeste 0 -- -- 98
2020-03-16 03:00:00 11.6 0 Calma 6 Oeste 0 -- -- 95
2020-03-16 02:00:00 11.9 0 Calma 6 Oeste 0 -- -- 94
2020-03-16 01:00:00 12 2 Norte 8 Oeste 0 -- -- 95
2020-03-16 00:00:00 12 2 Noroeste 5 Noroeste 0 -- -- 94
2020-03-15 23:00:00 12.1 3 Norte 13 Noroeste 0 -- -- 96
2020-03-15 22:00:00 12 3 Norte 18 Oeste 0 -- -- 95
2020-03-15 21:00:00 12.3 4 Oeste 21 Noroeste 0 -- -- 94
2020-03-15 20:00:00 13 3 Noroeste 10 Sur 0 -- -- 83
2020-03-15 19:00:00 14.4 0 Calma 18 Sudeste 0 -- -- 78
2020-03-15 18:00:00 16.7 11 Sudeste 28 Sudeste 0 -- -- 67
2020-03-15 17:00:00 17.7 15 Sur 31 Sudeste 0 -- -- 66
2020-03-15 16:00:00 18.4 15 Sur 29 Sur 0 -- -- 64
2020-03-15 15:00:00 18.4 13 Sur 29 Sudeste 0 -- -- 66
2020-03-15 14:00:00 18.3 16 Sur 33 Sur 0 -- -- 67
2020-03-15 13:00:00 18.5 16 Sur 31 Sur 0 -- -- 67
2020-03-15 12:00:00 17.8 8 Sudeste 17 Sur 0 -- -- 66
2020-03-15 11:00:00 16.1 9 Sur 15 Sur 0 -- -- 74
2020-03-15 10:00:00 13.6 4 Sur 9 Sur 0 -- -- 84
2020-03-15 09:00:00 11.2 0 Calma 5 Sur 0 -- -- 98
2020-03-15 08:00:00 10.2 3 Sur 8 Sur 0 -- -- 99
2020-03-15 07:00:00 11 4 Sur 5 Sur 0 -- -- 97
2020-03-15 06:00:00 11.4 0 Calma 6 Oeste 0 -- -- 98
2020-03-15 05:00:00 11.6 0 Calma 6 Noroeste 0 -- -- 98
2020-03-15 04:00:00 12.1 4 Noroeste 6 Oeste 0 -- -- 97
2020-03-15 03:00:00 12.1 0 Calma 5 Oeste 0 -- -- 96
2020-03-15 02:00:00 12.1 0 Calma 6 Oeste 0 -- -- 96
2020-03-15 01:00:00 12 0 Calma 5 Oeste 0 -- -- 98
2020-03-15 00:00:00 11.8 3 Noroeste 8 Noroeste 0 -- -- 100
2020-03-14 23:00:00 11.6 0 Calma 10 Norte 0 -- -- 98
2020-03-14 22:00:00 11.7 2 Nordeste 9 Noroeste 0 -- -- 96
2020-03-14 21:00:00 10.9 2 Sur 4 Sur 0 -- -- 91
2020-03-14 20:00:00 12.3 0 Calma 8 Nordeste 0 -- -- 90
2020-03-14 19:00:00 13.6 5 Nordeste 17 Sur 0 -- -- 86
2020-03-14 18:00:00 16.4 12 Sur 30 Sudeste 0 -- -- 68
2020-03-14 17:00:00 17.8 15 Sudeste 32 Sur 0 -- -- 73
2020-03-14 16:00:00 19.2 15 Sur 30 Sur 0 -- -- 68
2020-03-14 15:00:00 18.6 6 Nordeste 18 Nordeste 0 -- -- 69
2020-03-14 14:00:00 17.9 10 Norte 19 Nordeste 0 -- -- 71
2020-03-14 13:00:00 19.5 6 Sudeste 22 Sur 0 -- -- 57
2020-03-14 12:00:00 18.3 8 Sur 20 Sur 0 -- -- 66
2020-03-14 11:00:00 15 9 Nordeste 18 Nordeste 0 -- -- 80
2020-03-14 10:00:00 13.7 8 Nordeste 16 Nordeste 0 -- -- 82
2020-03-14 09:00:00 11.3 0 Calma 7 Sur 0 -- -- 100
2020-03-14 08:00:00 8.4 3 Sur 6 Sur 0 -- -- 100
2020-03-14 07:00:00 8.2 3 Sur 11 Sur 0 -- -- 97
2020-03-14 06:00:00 8.8 5 Sur 11 Sur 0 -- -- 99
2020-03-14 05:00:00 8.5 3 Sur 8 Noroeste 0 -- -- 98
2020-03-14 04:00:00 8.6 0 Calma 4 Noroeste 0 -- -- 99
2020-03-14 03:00:00 8.7 3 Sur 5 Sur 0 -- -- 98
2020-03-14 02:00:00 9.1 3 Sur 5 Sur 0 -- -- 98
2020-03-14 01:00:00 9.9 0 Calma 4 Nordeste 0 -- -- 95
2020-03-14 00:00:00 10.6 0 Calma 5 Este 0 -- -- 99
2020-03-13 23:00:00 10.5 0 Calma 4 Norte 0 -- -- 99
2020-03-13 22:00:00 10 0 Calma 2 Sudoeste 0 -- -- 93
2020-03-13 21:00:00 10.9 0 Calma 3 Sudoeste 0 -- -- 93
2020-03-13 20:00:00 11.8 0 Calma 8 Norte 0 -- -- 93
2020-03-13 19:00:00 12.6 4 Nordeste 12 Nordeste 0 -- -- 94
2020-03-13 18:00:00 13.6 6 Nordeste 14 Nordeste 0 -- -- 86
2020-03-13 17:00:00 14 8 Nordeste 15 Norte 0 -- -- 85
2020-03-13 16:00:00 14.9 10 Nordeste 15 Norte 0 -- -- 81
2020-03-13 15:00:00 14.8 7 Nordeste 16 Norte 0 -- -- 78
2020-03-13 14:00:00 13.9 8 Nordeste 18 Nordeste 0 -- -- 84
2020-03-13 13:00:00 14.4 8 Nordeste 16 Nordeste 0 -- -- 80
2020-03-13 12:00:00 14.6 6 Nordeste 14 Nordeste 0 -- -- 78
2020-03-13 11:00:00 13.4 4 Norte 10 Norte 0 -- -- 82
2020-03-13 10:00:00 12.6 4 Norte 9 Norte 0 -- -- 92
2020-03-13 09:00:00 11.5 4 Nordeste 10 Nordeste 0 -- -- 100
2020-03-13 08:00:00 11.6 4 Nordeste 11 Nordeste 0 -- -- 100
2020-03-13 07:00:00 11.1 3 Norte 12 Norte 0 -- -- 100
2020-03-13 06:00:00 11.1 2 Norte 3 Sudeste 0 -- -- 100
2020-03-13 05:00:00 10.4 2 Sudeste 6 Noroeste 0 -- -- 100
2020-03-13 04:00:00 8.9 0 Calma 5 Norte 0 -- -- 100
2020-03-13 03:00:00 8.6 2 Sudoeste 4 Sudoeste 0 -- -- 94
2020-03-13 02:00:00 9.8 0 Calma 4 Oeste 0 -- -- 96
2020-03-13 01:00:00 10.3 0 Calma 5 Este 0 -- -- 91
2020-03-13 00:00:00 11.6 0 Calma 4 Oeste 0 -- -- 90
2020-03-12 23:00:00 12.7 0 Calma 10 Noroeste 0 -- -- 94
2020-03-12 22:00:00 13.9 4 Nordeste 13 Noroeste 0 -- -- 88
2020-03-12 21:00:00 14.1 0 Calma 10 Oeste 0 -- -- 82
2020-03-12 20:00:00 15.4 2 Norte 9 Norte 0 -- -- 77
2020-03-12 19:00:00 18.1 3 Norte 9 Norte 0 -- -- 68
2020-03-12 18:00:00 20.9 4 Oeste 8 Sur 0 -- -- 61
2020-03-12 17:00:00 22.6 4 Noroeste 10 Noroeste 0 -- -- 55
2020-03-12 16:00:00 23 7 Noroeste 12 Noroeste 0 -- -- 57
2020-03-12 15:00:00 22.5 6 Norte 13 Norte 0 -- -- 57
2020-03-12 14:00:00 21.7 10 Norte 15 Norte 0 -- -- 56
2020-03-12 13:00:00 22.2 5 Norte 12 Norte 0 -- -- 54
2020-03-12 12:00:00 20.4 6 Norte 12 Norte 0 -- -- 56
2020-03-12 11:00:00 19.9 8 Norte 13 Norte 0 -- -- 55
2020-03-12 10:00:00 18.1 0 Calma 3 Norte 0 -- -- 58
2020-03-12 09:00:00 13.8 0 Calma 4 Sur 0 -- -- 83
2020-03-12 08:00:00 9.3 3 Sur 6 Oeste 0 -- -- 91
2020-03-12 07:00:00 8.7 3 Sur 6 Sur 0 -- -- 90
2020-03-12 06:00:00 8.9 2 Sur 6 Sur 0 -- -- 89
2020-03-12 05:00:00 9.6 0 Calma 5 Sur 0 -- -- 86
2020-03-12 04:00:00 11 5 Sur 7 Sur 0 -- -- 81
2020-03-12 03:00:00 10.4 4 Sur 6 Sur 0 -- -- 84
2020-03-12 02:00:00 10.7 3 Sur 9 Sur 0 -- -- 81
2020-03-12 01:00:00 11 0 Calma 6 Sur 0 -- -- 79
2020-03-12 00:00:00 12.9 0 Calma 8 Noroeste 0 -- -- 72
2020-03-11 23:00:00 13.1 2 Sudeste 13 Noroeste 0 -- -- 73
2020-03-11 22:00:00 14.6 2 Nordeste 14 Noroeste 0 -- -- 71
2020-03-11 21:00:00 14.1 0 Calma 12 Noroeste 0 -- -- 73
2020-03-11 20:00:00 16.1 3 Noroeste 11 Oeste 0 -- -- 64
2020-03-11 19:00:00 20.2 4 Noroeste 24 Sudeste 0 -- -- 48
2020-03-11 18:00:00 23.4 15 Sur 28 Sudeste 0 -- -- 41
2020-03-11 17:00:00 24.1 16 Sur 29 Sur 0 -- -- 38
2020-03-11 16:00:00 25.4 11 Sur 26 Sur 0 -- -- 37
2020-03-11 15:00:00 26.6 13 Sur 22 Sur 0 -- -- 35
2020-03-11 14:00:00 25.2 5 Norte 16 Norte 0 -- -- 43
2020-03-11 13:00:00 24.3 9 Norte 14 Nordeste 0 -- -- 46
2020-03-11 12:00:00 24.5 7 Nordeste 13 Oeste 0 -- -- 40
2020-03-11 11:00:00 23.4 5 Noroeste 10 Noroeste 0 -- -- 39
2020-03-11 10:00:00 21.5 6 Oeste 13 Oeste 0 -- -- 42
2020-03-11 09:00:00 15.5 3 Sur 6 Sudeste 0 -- -- 65
2020-03-11 08:00:00 13.9 6 Sur 13 Sur 0 -- -- 60
2020-03-11 07:00:00 12.9 3 Sur 8 Este 0 -- -- 63
2020-03-11 06:00:00 14.6 3 Sudoeste 12 Sur 0 -- -- 57
2020-03-11 05:00:00 15.1 3 Sur 11 Sudeste 0 -- -- 55
2020-03-11 04:00:00 12.1 3 Sudeste 9 Sudeste 0 -- -- 66
2020-03-11 03:00:00 12.6 3 Sudoeste 5 Sudoeste 0 -- -- 66
2020-03-11 02:00:00 14.6 3 Sur 7 Sur 0 -- -- 60
2020-03-11 01:00:00 17.9 7 Sur 18 Sudeste 0 -- -- 47
2020-03-11 00:00:00 16.3 3 Sudoeste 10 Sudeste 0 -- -- 55
2020-03-10 23:00:00 16.3 4 Sudeste 8 Sur 0 -- -- 56
2020-03-10 22:00:00 17.6 4 Sudeste 11 Sudeste 0 -- -- 50
2020-03-10 21:00:00 18.2 4 Norte 12 Sudeste 0 -- -- 47
2020-03-10 20:00:00 18.5 6 Sudeste 12 Sudeste 0 -- -- 44
2020-03-10 19:00:00 18.9 4 Sur 14 Sur 0 -- -- 46
2020-03-10 18:00:00 21.5 6 Sur 13 Sur 0 -- -- 44
2020-03-10 17:00:00 22.8 0 Calma 15 Noroeste 0 -- -- 37
2020-03-10 16:00:00 23.3 5 Noroeste 17 Noroeste 0 -- -- 34
2020-03-10 15:00:00 20.6 5 Noroeste 15 Noroeste 0 -- -- 36
2020-03-10 14:00:00 19.4 6 Noroeste 15 Noroeste 0 -- -- 42
2020-03-10 13:00:00 19.6 5 Noroeste 14 Norte 0 -- -- 40
2020-03-10 12:00:00 17.8 8 Noroeste 19 Oeste 0 -- -- 42
2020-03-10 11:00:00 17.8 8 Noroeste 17 Noroeste 0 -- -- 41
2020-03-10 10:00:00 15.2 8 Noroeste 17 Noroeste 0 -- -- 47
2020-03-10 09:00:00 11.6 3 Norte 7 Noroeste 0 -- -- 57
2020-03-10 08:00:00 8.3 3 Sur 12 Sur 0 -- -- 72
2020-03-10 07:00:00 6.9 3 Sudoeste 11 Sur 0 -- -- 78
2020-03-10 06:00:00 6.2 4 Sur 7 Sudeste 0 -- -- 76
2020-03-10 05:00:00 8 0 Calma 6 Sur 0 -- -- 67
2020-03-10 04:00:00 9.1 4 Norte 9 Noroeste 0 -- -- 61
2020-03-10 03:00:00 10.6 5 Norte 14 Noroeste 0 -- -- 56
2020-03-10 02:00:00 12.4 8 Norte 18 Noroeste 0 -- -- 49
2020-03-10 01:00:00 9 4 Norte 14 Norte 0 -- -- 70
2020-03-10 00:00:00 12.1 5 Norte 14 Oeste 0 -- -- 59
2020-03-09 23:00:00 11.7 0 Calma 10 Oeste 0 -- -- 60
2020-03-09 22:00:00 14.7 5 Norte 22 Norte 0 -- -- 48
2020-03-09 21:00:00 12.6 3 Sur 6 Sudoeste 0 -- -- 55
2020-03-09 20:00:00 15.2 3 Noroeste 15 Nordeste 0 -- -- 48
2020-03-09 19:00:00 17.2 5 Nordeste 17 Norte 0 -- -- 40
2020-03-09 18:00:00 19.5 10 Norte 21 Nordeste 0 -- -- 36
2020-03-09 17:00:00 19.8 9 Norte 22 Norte 0 -- -- 36
2020-03-09 16:00:00 19.6 11 Norte 24 Noroeste 0 -- -- 37
2020-03-09 15:00:00 19.5 14 Noroeste 32 Oeste 0 -- -- 38
2020-03-09 14:00:00 18.3 12 Noroeste 25 Oeste 0 -- -- 41
2020-03-09 13:00:00 16.6 10 Noroeste 19 Noroeste 0 -- -- 46
2020-03-09 12:00:00 15.5 9 Noroeste 22 Noroeste 0 -- -- 50
2020-03-09 11:00:00 14.4 9 Noroeste 21 Noroeste 0 -- -- 57
2020-03-09 10:00:00 12.7 13 Noroeste 23 Noroeste 0 -- -- 62
2020-03-09 09:00:00 11.7 9 Norte 17 Noroeste 0 -- -- 65
2020-03-09 08:00:00 11 7 Norte 17 Noroeste 0 -- -- 67
2020-03-09 07:00:00 10.1 4 Nordeste 8 Nordeste 0 -- -- 68
2020-03-09 06:00:00 11.2 3 Oeste 12 Nordeste 0 -- -- 63
2020-03-09 05:00:00 12.3 8 Norte 14 Norte 0 -- -- 58
2020-03-09 04:00:00 12.6 4 Norte 21 Norte 0 -- -- 57
2020-03-09 03:00:00 13.7 9 Norte 21 Noroeste 0 -- -- 51
2020-03-09 02:00:00 14.3 9 Norte 16 Norte 0 -- -- 48
2020-03-09 01:00:00 14.8 7 Norte 15 Noroeste 0 -- -- 45
2020-03-09 00:00:00 15.6 6 Norte 15 Norte 0 -- -- 43
2020-03-08 23:00:00 16.1 6 Norte 12 Norte 0 -- -- 41
2020-03-08 22:00:00 17.2 7 Norte 13 Noroeste 0 -- -- 37
2020-03-08 21:00:00 17.9 6 Norte 19 Noroeste 0 -- -- 34
2020-03-08 20:00:00 18 8 Norte 15 Norte 0 -- -- 33
2020-03-08 19:00:00 18.4 6 Norte 24 Nordeste 0 -- -- 32
2020-03-08 18:00:00 21.3 12 Noroeste 27 Noroeste 0 -- -- 27
2020-03-08 17:00:00 22.5 10 Noroeste 21 Oeste 0 -- -- 28
2020-03-08 16:00:00 23.2 9 Noroeste 26 Noroeste 0 -- -- 24
2020-03-08 15:00:00 22.8 10 Noroeste 24 Noroeste 0 -- -- 28
2020-03-08 14:00:00 20.5 9 Noroeste 22 Norte 0 -- -- 31
2020-03-08 13:00:00 19.4 10 Noroeste 24 Oeste 0 -- -- 38
2020-03-08 12:00:00 17.7 13 Noroeste 22 Noroeste 0 -- -- 42
2020-03-08 11:00:00 15.8 9 Noroeste 22 Noroeste 0 -- -- 46
2020-03-08 10:00:00 14.7 10 Oeste 25 Oeste 0 -- -- 49
2020-03-08 09:00:00 11.4 5 Este 18 Sudoeste 0 -- -- 59
2020-03-08 08:00:00 7.4 2 Sudeste 8 Oeste 0 -- -- 74
2020-03-08 07:00:00 8.4 4 Sudeste 10 Sudeste 0 -- -- 70
2020-03-08 06:00:00 7.9 3 Este 11 Este 0 -- -- 71
2020-03-08 05:00:00 7.9 2 Nordeste 10 Sudeste 0 -- -- 69
2020-03-08 04:00:00 8.9 0 Calma 8 Sudeste 0 -- -- 67
2020-03-08 03:00:00 8.4 2 Nordeste 8 Nordeste 0 -- -- 69
2020-03-08 02:00:00 7.4 2 Este 6 Noroeste 0 -- -- 77
2020-03-08 01:00:00 8 0 Calma 8 Nordeste 0 -- -- 73
2020-03-08 00:00:00 10.2 2 Nordeste 9 Norte 0 -- -- 66
2020-03-07 23:00:00 7.7 0 Calma 5 Norte 0 -- -- 75
2020-03-07 22:00:00 8.8 0 Calma 12 Sur 0 -- -- 69
2020-03-07 21:00:00 10.2 3 Sur 16 Sur 0 -- -- 61
2020-03-07 20:00:00 11.4 9 Sur 16 Sudoeste 0 -- -- 58
2020-03-07 19:00:00 14.3 4 Sur 8 Sur 0 -- -- 54
2020-03-07 18:00:00 17.7 3 Noroeste 12 Norte 0 -- -- 44
2020-03-07 17:00:00 17.5 6 Oeste 18 Noroeste 0 -- -- 41
2020-03-07 16:00:00 17.6 8 Oeste 25 Nordeste 0 -- -- 40
2020-03-07 15:00:00 16.5 13 Nordeste 31 Noroeste 0 -- -- 41
2020-03-07 14:00:00 15.3 18 Norte 34 Norte 0 -- -- 42
2020-03-07 13:00:00 13.8 17 Norte 38 Noroeste 0 -- -- 44
2020-03-07 12:00:00 11.9 17 Noroeste 37 Noroeste 0 -- -- 48
2020-03-07 11:00:00 11 7 Oeste 40 Norte 0 -- -- 49
2020-03-07 10:00:00 9.4 12 Noroeste 35 Noroeste 0 -- -- 52
2020-03-07 09:00:00 8.6 15 Noroeste 25 Noroeste 0 -- -- 53
2020-03-07 08:00:00 7.4 8 Norte 25 Noroeste 0 -- -- 57
2020-03-07 07:00:00 6.5 15 Norte 28 Noroeste 0 -- -- 59
2020-03-07 06:00:00 7.3 16 Norte 28 Norte 0 -- -- 55
2020-03-07 05:00:00 7.4 15 Noroeste 28 Norte 0 -- -- 53
2020-03-07 04:00:00 8.6 17 Norte 49 Noroeste 0 -- -- 47
2020-03-07 03:00:00 9 19 Norte 38 Noroeste 0 -- -- 44
2020-03-07 02:00:00 9.5 17 Norte 37 Norte 0 -- -- 41
2020-03-07 01:00:00 10.1 17 Norte 36 Norte 0 -- -- 40
2020-03-07 00:00:00 10.7 15 Norte 40 Noroeste 0 -- -- 38
2020-03-06 23:00:00 11.5 20 Norte 42 Norte 0 -- -- 34
2020-03-06 22:00:00 11.4 16 Norte 39 Norte 0 -- -- 35
2020-03-06 21:00:00 12.1 23 Norte 48 Norte 0 -- -- 32
2020-03-06 20:00:00 12.4 18 Norte 42 Norte 0 -- -- 32
2020-03-06 19:00:00 12.3 21 Norte 42 Nordeste 0 -- -- 35
2020-03-06 18:00:00 12.9 12 Norte 24 Norte 0 -- -- 45
2020-03-06 17:00:00 13 8 Sudeste 41 Nordeste 0 -- -- 55
2020-03-06 16:00:00 14.5 19 Norte 36 Norte 0 -- -- 33
2020-03-06 15:00:00 15.5 20 Norte 54 Noroeste 0 -- -- 32
2020-03-06 14:00:00 16 27 Norte 46 Noroeste 0 -- -- 33
2020-03-06 13:00:00 12.8 17 Norte 43 Noroeste 0 -- -- 48
2020-03-06 12:00:00 13.5 21 Norte 46 Norte 0 -- -- 46
2020-03-06 11:00:00 12.9 26 Norte 49 Norte 0 -- -- 51
2020-03-06 10:00:00 12 18 Noroeste 36 Noroeste 0 -- -- 57
2020-03-06 09:00:00 10.6 13 Noroeste 44 Noroeste 0 -- -- 61
2020-03-06 08:00:00 9.8 17 Noroeste 40 Oeste 0 -- -- 60
2020-03-06 07:00:00 9.5 5 Norte 25 Norte 0 -- -- 64
2020-03-06 06:00:00 10.3 13 Norte 32 Norte 0 -- -- 63
2020-03-06 05:00:00 10.9 9 Norte 31 Norte 0 -- -- 64
2020-03-06 04:00:00 11.8 16 Norte 33 Noroeste 0 -- -- 61
2020-03-06 03:00:00 12.1 14 Norte 39 Noroeste 0 -- -- 60
2020-03-06 02:00:00 13.1 22 Norte 51 Noroeste 0 -- -- 57
2020-03-06 01:00:00 13.4 13 Norte 29 Norte 0 -- -- 57
2020-03-06 00:00:00 14 14 Norte 32 Norte 0 -- -- 55
2020-03-05 23:00:00 15 21 Norte 36 Norte 0 -- -- 49
2020-03-05 22:00:00 15.5 17 Norte 31 Norte 0 -- -- 45
2020-03-05 21:00:00 15.5 14 Norte 35 Noroeste 0 -- -- 48
2020-03-05 20:00:00 16.6 17 Norte 40 Noroeste 0 -- -- 46
2020-03-05 19:00:00 17.4 13 Norte 46 Oeste 0 -- -- 50
2020-03-05 18:00:00 18.2 22 Noroeste 49 Noroeste 0 -- -- 50
2020-03-05 17:00:00 19.4 21 Noroeste 46 Noroeste 0 -- -- 52
2020-03-05 16:00:00 18.7 25 Noroeste 57 Noroeste 0 -- -- 54
2020-03-05 15:00:00 20.9 30 Noroeste 55 Noroeste 0 -- -- 47
2020-03-05 14:00:00 21.8 19 Noroeste 40 Noroeste 0 -- -- 46
2020-03-05 13:00:00 20.3 15 Noroeste 41 Norte 0 -- -- 48
2020-03-05 12:00:00 18.6 23 Norte 39 Noroeste 0 -- -- 52
2020-03-05 11:00:00 17.2 8 Noroeste 37 Oeste 0 -- -- 58
2020-03-05 10:00:00 15.4 11 Oeste 29 Oeste 0 -- -- 63
2020-03-05 09:00:00 14.9 13 Oeste 37 Noroeste 0 -- -- 62
2020-03-05 08:00:00 13.4 12 Sudoeste 30 Oeste 0 -- -- 65
2020-03-05 07:00:00 13.5 7 Sudoeste 29 Sudoeste 0 -- -- 64
2020-03-05 06:00:00 13.1 15 Sudoeste 28 Oeste 0 -- -- 64
2020-03-05 05:00:00 12.4 10 Sudoeste 23 Oeste 0 -- -- 67
2020-03-05 04:00:00 12.9 10 Sudoeste 23 Oeste 0 -- -- 66
2020-03-05 03:00:00 13 2 Nordeste 10 Oeste 0 -- -- 66
2020-03-05 02:00:00 13.4 4 Nordeste 21 Noroeste 0 -- -- 65
2020-03-05 01:00:00 14.1 10 Noroeste 19 Noroeste 0 -- -- 63
2020-03-05 00:00:00 14.8 8 Noroeste 23 Oeste 0 -- -- 61
2020-03-04 23:00:00 15.1 12 Oeste 26 Oeste 0 -- -- 60
2020-03-04 22:00:00 15.6 13 Oeste 27 Oeste 0 -- -- 58
2020-03-04 21:00:00 15.8 9 Oeste 27 Oeste 0 -- -- 57
2020-03-04 20:00:00 16.2 5 Norte 28 Noroeste 0 -- -- 56
2020-03-04 19:00:00 17.3 9 Oeste 36 Oeste 0 -- -- 54
2020-03-04 18:00:00 19 11 Noroeste 34 Noroeste 0 -- -- 50
2020-03-04 17:00:00 19.9 17 Noroeste 39 Oeste 0 -- -- 49
2020-03-04 16:00:00 20.4 17 Noroeste 40 Noroeste 0 -- -- 49
2020-03-04 15:00:00 20.1 18 Noroeste 36 Noroeste 0 -- -- 53
2020-03-04 14:00:00 20.3 19 Noroeste 37 Noroeste 0 -- -- 54
2020-03-04 13:00:00 19.7 17 Noroeste 40 Noroeste 0 -- -- 58
2020-03-04 12:00:00 19.1 14 Noroeste 33 Noroeste 0 -- -- 60
2020-03-04 11:00:00 17.7 16 Noroeste 33 Oeste 0 -- -- 65
2020-03-04 10:00:00 16.8 10 Noroeste 26 Noroeste 0 -- -- 69
2020-03-04 09:00:00 16.1 7 Norte 26 Noroeste 0 -- -- 72
2020-03-04 08:00:00 14.1 5 Norte 22 Norte 0 -- -- 78
2020-03-04 07:00:00 14.3 11 Norte 23 Norte 0 -- -- 77
2020-03-04 06:00:00 14.7 11 Norte 22 Noroeste 0 -- -- 74
2020-03-04 05:00:00 15.1 9 Nordeste 24 Noroeste 0 -- -- 74
2020-03-04 04:00:00 15.1 10 Norte 26 Norte 0 -- -- 74
2020-03-04 03:00:00 15.2 11 Norte 36 Noroeste 0 -- -- 73
2020-03-04 02:00:00 15.6 16 Norte 31 Norte 0 -- -- 70
2020-03-04 01:00:00 15.3 12 Norte 35 Norte 0 -- -- 70
2020-03-04 00:00:00 15.6 16 Norte 41 Noroeste 0 -- -- 68
2020-03-03 23:00:00 15.7 15 Norte 33 Noroeste 0 -- -- 65
2020-03-03 22:00:00 15.7 14 Norte 44 Noroeste 0 -- -- 63
2020-03-03 21:00:00 15.8 16 Norte 35 Noroeste 0 -- -- 62
2020-03-03 20:00:00 15.9 15 Norte 39 Noroeste 0 -- -- 60
2020-03-03 19:00:00 16.3 20 Norte 50 Noroeste 0 -- -- 57
2020-03-03 18:00:00 17.3 22 Norte 56 Noroeste 0 -- -- 53
2020-03-03 17:00:00 17.5 21 Noroeste 53 Noroeste 0 -- -- 52
2020-03-03 16:00:00 18.9 26 Noroeste 61 Oeste 0 -- -- 47
2020-03-03 15:00:00 18.1 25 Noroeste 50 Noroeste 0 -- -- 48
2020-03-03 14:00:00 17 23 Norte 39 Noroeste 0 -- -- 48
2020-03-03 13:00:00 14.9 10 Noroeste 30 Noroeste 0 -- -- 50
2020-03-03 12:00:00 13.7 11 Noroeste 32 Oeste 0 -- -- 52
2020-03-03 11:00:00 12.5 10 Noroeste 36 Oeste 0 -- -- 54
2020-03-03 10:00:00 11.2 12 Noroeste 28 Oeste 0 -- -- 58
2020-03-03 09:00:00 9.8 8 Sudoeste 23 Sudoeste 0 -- -- 56
2020-03-03 08:00:00 9.2 5 Sur 17 Norte 0 -- -- 59
2020-03-03 07:00:00 9.1 4 Norte 23 Norte 0 -- -- 58
2020-03-03 06:00:00 8.8 8 Norte 24 Norte 0 -- -- 57
2020-03-03 05:00:00 9.1 10 Norte 24 Nordeste 0 -- -- 52
2020-03-03 04:00:00 9.1 7 Nordeste 27 Norte 0 -- -- 49
2020-03-03 03:00:00 9.2 9 Norte 26 Noroeste 0 -- -- 49
2020-03-03 02:00:00 9.8 12 Norte 23 Nordeste 0 -- -- 47
2020-03-03 01:00:00 9.7 13 Norte 27 Norte 0 -- -- 49
2020-03-03 00:00:00 10 9 Norte 23 Noroeste 0 -- -- 48
2020-03-02 23:00:00 10.2 10 Norte 25 Norte 0 -- -- 49
2020-03-02 22:00:00 10.4 12 Norte 22 Norte 0 -- -- 47
2020-03-02 21:00:00 11.2 15 Norte 39 Noroeste 0 -- -- 44
2020-03-02 20:00:00 11.5 15 Norte 47 Noroeste 0 -- -- 40
2020-03-02 19:00:00 12.1 22 Norte 40 Nordeste 0 -- -- 43
2020-03-02 18:00:00 11.8 20 Norte 54 Noroeste 0 -- -- 60
2020-03-02 17:00:00 14.2 23 Norte 60 Norte 0 -- -- 49
2020-03-02 16:00:00 17.2 17 Norte 52 Norte 0 -- -- 41
2020-03-02 15:00:00 18.4 23 Norte 66 Norte 0 -- -- 40
2020-03-02 14:00:00 18.9 31 Norte 68 Norte 0 -- -- 37
2020-03-02 13:00:00 19.1 32 Norte 72 Noroeste 0 -- -- 41
2020-03-02 12:00:00 19.3 28 Norte 83 Noroeste 0 -- -- 51
2020-03-02 11:00:00 18.7 31 Noroeste 74 Noroeste 0 -- -- 55
2020-03-02 10:00:00 18.6 26 Noroeste 71 Oeste 0 -- -- 51
2020-03-02 09:00:00 17.6 23 Noroeste 73 Noroeste 0 -- -- 51
2020-03-02 08:00:00 16.6 23 Noroeste 58 Noroeste 0 -- -- 52
2020-03-02 07:00:00 16 17 Oeste 57 Norte 0 -- -- 54
2020-03-02 06:00:00 16.6 29 Noroeste 62 Noroeste 0 -- -- 49
2020-03-02 05:00:00 16 15 Oeste 48 Sudoeste 0 -- -- 57
2020-03-02 04:00:00 16 12 Oeste 37 Sudoeste 0 -- -- 56
2020-03-02 03:00:00 16.1 12 Sudoeste 37 Sudoeste 0 -- -- 53
2020-03-02 02:00:00 16 12 Sudoeste 26 Sudoeste 0 -- -- 53
2020-03-02 01:00:00 15.8 10 Sur 36 Oeste 0 -- -- 52
2020-03-02 00:00:00 15.2 10 Sudoeste 41 Sudoeste 0 -- -- 55